Time;durP1;ratioP1;P1;durP2;ratioP2;P2;SDS_P1;SDS_P2;PMS_P1;PMS_P2;Temp;Humidity;BMP_temperature;BMP_pressure;BME280_temperature;BME280_humidity;BME280_pressure;Samples;Min_cycle;Max_cycle;Signal;HPM_P1;HPM_P2
2024/04/15 00:00:14;;;;;;;0.00;0.00;;;19.20;49.60;;;;;;5441942;26;20315;-50
2024/04/15 00:02:43;;;;;;;0.00;0.00;;;19.30;49.60;;;;;;5441068;26;20696;-53
2024/04/15 00:05:16;;;;;;;0.10;0.10;;;19.30;49.70;;;;;;5441271;26;20344;-52
2024/04/15 00:07:46;;;;;;;0.05;0.05;;;19.30;49.70;;;;;;5442089;26;20217;-49
2024/04/15 00:10:18;;;;;;;0.10;0.10;;;19.30;49.70;;;;;;5441665;26;20272;-47
2024/04/15 00:12:51;;;;;;;0.10;0.10;;;19.30;49.70;;;;;;5441341;26;20337;-47
2024/04/15 00:15:23;;;;;;;0.00;0.00;;;19.40;49.80;;;;;;5440867;26;20772;-49
2024/04/15 00:17:52;;;;;;;0.00;0.00;;;19.40;49.80;;;;;;5441239;26;20321;-48
2024/04/15 00:20:24;;;;;;;0.00;0.00;;;19.40;49.80;;;;;;5441488;26;20220;-46
2024/04/15 00:22:54;;;;;;;0.00;0.00;;;19.40;49.90;;;;;;5442330;26;20327;-47
2024/04/15 00:25:26;;;;;;;0.00;0.00;;;19.40;49.90;;;;;;5442388;26;20224;-47
2024/04/15 00:27:58;;;;;;;0.00;0.00;;;19.50;50.00;;;;;;5441838;26;20278;-50
2024/04/15 00:30:30;;;;;;;0.00;0.00;;;19.50;50.00;;;;;;5441744;26;20325;-53
2024/04/15 00:33:00;;;;;;;0.10;0.10;;;19.50;50.00;;;;;;5441721;26;20212;-50
2024/04/15 00:35:32;;;;;;;0.00;0.00;;;19.50;50.00;;;;;;5441703;26;20229;-48
2024/04/15 00:38:01;;;;;;;0.00;0.00;;;19.50;50.00;;;;;;5405967;26;20316;-49
2024/04/15 00:40:33;;;;;;;0.00;0.00;;;19.50;50.10;;;;;;5406016;26;20222;-50
2024/04/15 00:43:07;;;;;;;0.10;0.10;;;19.60;50.20;;;;;;5404883;26;20222;-48
2024/04/15 00:45:39;;;;;;;0.03;0.03;;;19.60;50.30;;;;;;5405051;26;20257;-48
2024/04/15 00:48:13;;;;;;;0.00;0.00;;;19.60;50.30;;;;;;5404950;26;20328;-48
2024/04/15 00:50:49;;;;;;;0.00;0.00;;;19.70;50.40;;;;;;5439005;26;20228;-50
2024/04/15 00:53:23;;;;;;;0.00;0.00;;;19.70;50.50;;;;;;5441011;26;20287;-51
2024/04/15 00:55:55;;;;;;;0.00;0.00;;;19.70;50.50;;;;;;5440926;26;20220;-50
2024/04/15 00:58:31;;;;;;;0.10;0.10;;;19.70;50.40;;;;;;5440862;26;20236;-53
2024/04/15 01:01:01;;;;;;;0.10;0.10;;;19.70;50.50;;;;;;5441212;26;20255;-48
2024/04/15 01:03:33;;;;;;;0.00;0.00;;;19.70;50.50;;;;;;5441023;26;20304;-50
2024/04/15 01:06:04;;;;;;;0.00;0.00;;;19.80;50.60;;;;;;5441018;26;20834;-50
2024/04/15 01:08:36;;;;;;;0.00;0.00;;;19.80;50.70;;;;;;5441164;26;20275;-47
2024/04/15 01:11:06;;;;;;;0.00;0.00;;;19.80;50.70;;;;;;5441344;26;20220;-51
2024/04/15 01:13:41;;;;;;;0.10;0.10;;;19.80;50.80;;;;;;5440138;26;20244;-50
2024/04/15 01:16:11;;;;;;;0.10;0.10;;;19.80;50.80;;;;;;5440700;26;20368;-47
2024/04/15 01:18:43;;;;;;;0.10;0.10;;;19.90;50.90;;;;;;5440733;26;20220;-51
2024/04/15 01:21:12;;;;;;;0.00;0.00;;;19.90;50.90;;;;;;5440455;26;20311;-47
2024/04/15 01:23:52;;;;;;;0.10;0.10;;;19.90;51.50;;;;;;5440755;26;20393;-50
2024/04/15 01:26:21;;;;;;;0.08;0.08;;;20.00;51.00;;;;;;5416795;26;20348;-52
2024/04/15 01:28:53;;;;;;;0.05;0.05;;;20.00;51.00;;;;;;5405010;26;20225;-50
2024/04/15 01:31:22;;;;;;;0.10;0.10;;;20.00;51.00;;;;;;5408914;26;20714;-49
2024/04/15 01:33:55;;;;;;;0.10;0.10;;;20.00;51.00;;;;;;5427649;26;20268;-51
2024/04/15 01:36:24;;;;;;;0.00;0.00;;;20.10;51.00;;;;;;5440404;26;20271;-51
2024/04/15 01:38:59;;;;;;;0.00;0.00;;;20.10;51.00;;;;;;5440485;26;20738;-52
2024/04/15 01:41:28;;;;;;;0.08;0.08;;;20.10;51.10;;;;;;5439928;26;20274;-52
2024/04/15 01:44:01;;;;;;;0.00;0.00;;;20.10;51.00;;;;;;5439559;26;20291;-54
2024/04/15 01:46:30;;;;;;;0.00;0.00;;;20.10;51.00;;;;;;5440372;26;20322;-54
2024/04/15 01:49:02;;;;;;;0.10;0.10;;;20.20;51.00;;;;;;5440231;26;20567;-50
2024/04/15 01:51:32;;;;;;;0.10;0.10;;;20.20;51.10;;;;;;5442941;26;20547;-54
2024/04/15 01:54:07;;;;;;;0.10;0.10;;;20.20;51.00;;;;;;5443306;26;20274;-54
2024/04/15 01:56:36;;;;;;;0.10;0.10;;;20.20;51.00;;;;;;5443957;26;20216;-52
2024/04/15 01:59:10;;;;;;;0.10;0.10;;;20.20;51.00;;;;;;5443942;26;20313;-52
2024/04/15 02:01:40;;;;;;;0.05;0.05;;;20.20;51.00;;;;;;5441988;26;20571;-53
2024/04/15 02:04:12;;;;;;;0.17;0.17;;;20.30;51.00;;;;;;5443310;26;20714;-50
2024/04/15 02:06:42;;;;;;;0.00;0.00;;;20.30;51.00;;;;;;5443397;26;20284;-48
2024/04/15 02:09:18;;;;;;;0.10;0.10;;;20.30;51.00;;;;;;5443433;26;20304;-47
2024/04/15 02:11:47;;;;;;;0.10;0.10;;;20.30;51.00;;;;;;5443333;26;20224;-47
2024/04/15 02:14:19;;;;;;;0.10;0.10;;;20.30;51.00;;;;;;5443140;26;20245;-49
2024/04/15 02:16:48;;;;;;;0.00;0.00;;;20.40;51.00;;;;;;5443722;26;20555;-51
2024/04/15 02:19:20;;;;;;;0.10;0.10;;;20.30;50.80;;;;;;5443502;26;20268;-49
2024/04/15 02:21:50;;;;;;;0.00;0.00;;;20.40;51.00;;;;;;5442580;26;20216;-48
2024/04/15 02:24:27;;;;;;;0.00;0.00;;;20.40;51.10;;;;;;5442450;26;20232;-48
2024/04/15 02:26:56;;;;;;;0.10;0.10;;;20.40;51.10;;;;;;5443428;26;20700;-50
2024/04/15 02:29:29;;;;;;;0.10;0.10;;;20.40;51.00;;;;;;5443802;26;20236;-49
2024/04/15 02:31:58;;;;;;;0.10;0.10;;;20.40;51.00;;;;;;5442928;26;20360;-48
2024/04/15 02:34:31;;;;;;;0.00;0.00;;;20.40;51.00;;;;;;5443063;26;20720;-47
2024/04/15 02:37:00;;;;;;;0.00;0.00;;;20.40;51.00;;;;;;5443085;26;20220;-54
2024/04/15 02:39:35;;;;;;;0.10;0.10;;;20.40;51.00;;;;;;5443159;26;20752;-50
2024/04/15 02:42:05;;;;;;;0.10;0.10;;;20.50;51.10;;;;;;5442967;26;20224;-49
2024/04/15 02:44:37;;;;;;;0.05;0.05;;;20.40;51.00;;;;;;5441052;26;20340;-51
2024/04/15 02:47:07;;;;;;;0.10;0.10;;;20.40;51.00;;;;;;5406780;26;20298;-48
2024/04/15 02:49:39;;;;;;;0.00;0.00;;;20.50;51.00;;;;;;5407078;26;20294;-48
2024/04/15 02:52:08;;;;;;;0.00;0.00;;;20.50;51.00;;;;;;5406639;26;20226;-48
2024/04/15 02:54:44;;;;;;;0.00;0.00;;;20.50;51.00;;;;;;5406676;26;20233;-49
2024/04/15 02:57:13;;;;;;;0.00;0.00;;;20.50;51.00;;;;;;5406973;26;20221;-53
2024/04/15 02:59:45;;;;;;;0.10;0.10;;;20.50;51.10;;;;;;5407323;26;20226;-51
2024/04/15 03:02:14;;;;;;;0.00;0.00;;;20.50;51.10;;;;;;5411962;26;20260;-48
2024/04/15 03:04:47;;;;;;;0.10;0.10;;;20.50;51.20;;;;;;5442837;26;20232;-53
2024/04/15 03:07:17;;;;;;;0.00;0.00;;;20.50;51.20;;;;;;5443026;26;20276;-54
2024/04/15 03:10:00;;;;;;;0.00;0.00;;;20.50;51.20;;;;;;5442495;26;20228;-47
2024/04/15 03:12:29;;;;;;;0.08;0.08;;;20.50;51.10;;;;;;5442485;26;20594;-49
2024/04/15 03:15:01;;;;;;;0.00;0.00;;;20.50;51.10;;;;;;5442454;26;20229;-50
2024/04/15 03:17:31;;;;;;;0.00;0.00;;;20.50;51.20;;;;;;5442600;26;20229;-50
2024/04/15 03:20:04;;;;;;;0.10;0.10;;;20.50;51.20;;;;;;5441674;26;20615;-49
2024/04/15 03:22:33;;;;;;;0.10;0.10;;;20.50;51.20;;;;;;5442520;26;20220;-48
2024/04/15 03:25:09;;;;;;;0.00;0.00;;;20.50;51.20;;;;;;5442301;26;20282;-48
2024/04/15 03:27:38;;;;;;;0.00;0.00;;;20.50;51.90;;;;;;5442133;26;20220;-49
2024/04/15 03:30:11;;;;;;;0.10;0.10;;;20.50;51.30;;;;;;5454750;21;20351;-47
2024/04/15 03:32:40;;;;;;;0.00;0.00;;;20.50;51.30;;;;;;5443681;26;20841;-46
2024/04/15 03:35:16;;;;;;;0.10;0.10;;;20.50;51.20;;;;;;5379140;26;20246;-45
2024/04/15 03:37:48;;;;;;;0.10;0.10;;;20.50;51.30;;;;;;5370190;26;20256;-47
2024/04/15 03:40:24;;;;;;;0.00;0.00;;;20.50;51.30;;;;;;5370516;26;20223;-49
2024/04/15 03:42:56;;;;;;;0.10;0.10;;;20.50;51.30;;;;;;5371147;26;20299;-46
2024/04/15 03:45:25;;;;;;;0.00;0.00;;;20.50;51.40;;;;;;5370704;26;20699;-47
2024/04/15 03:47:57;;;;;;;0.10;0.10;;;20.50;51.30;;;;;;5371034;26;20252;-46
2024/04/15 03:50:30;;;;;;;0.00;0.00;;;20.50;51.30;;;;;;5370828;26;20223;-46
2024/04/15 03:52:59;;;;;;;0.10;0.10;;;20.50;51.30;;;;;;5370434;26;20214;-46
2024/04/15 03:55:34;;;;;;;0.00;0.00;;;20.50;51.30;;;;;;5370543;26;20222;-46
2024/04/15 03:58:04;;;;;;;0.05;0.05;;;20.50;51.40;;;;;;5370789;26;20222;-45
2024/04/15 04:00:36;;;;;;;0.00;0.00;;;20.50;51.30;;;;;;5370935;26;20265;-48
2024/04/15 04:03:05;;;;;;;0.10;0.10;;;20.50;51.30;;;;;;5387692;26;20329;-46
2024/04/15 04:05:37;;;;;;;0.00;0.00;;;20.50;51.40;;;;;;5405961;26;20233;-46
2024/04/15 04:08:07;;;;;;;0.00;0.00;;;20.50;51.40;;;;;;5406053;26;20221;-46
2024/04/15 04:10:43;;;;;;;0.10;0.10;;;20.50;51.50;;;;;;5405634;26;20291;-47
2024/04/15 04:13:12;;;;;;;0.00;0.00;;;20.50;51.50;;;;;;5405541;26;20235;-47
2024/04/15 04:15:44;;;;;;;0.00;0.00;;;20.50;51.50;;;;;;5405994;26;20739;-46
2024/04/15 04:18:14;;;;;;;0.10;0.10;;;20.50;51.50;;;;;;5405831;26;20321;-50
2024/04/15 04:20:46;;;;;;;0.05;0.05;;;20.50;51.60;;;;;;5405538;26;20233;-47
2024/04/15 04:23:15;;;;;;;0.00;0.00;;;20.50;51.50;;;;;;5405975;26;20217;-46
2024/04/15 04:25:51;;;;;;;0.00;0.00;;;20.50;51.60;;;;;;5405789;26;20803;-46
2024/04/15 04:28:20;;;;;;;0.10;0.10;;;20.50;51.60;;;;;;5405176;26;20217;-48
2024/04/15 04:30:53;;;;;;;0.00;0.00;;;20.50;51.60;;;;;;5405563;26;21015;-46
2024/04/15 04:33:22;;;;;;;0.00;0.00;;;20.50;51.60;;;;;;5405595;26;20225;-52
2024/04/15 04:35:54;;;;;;;0.00;0.00;;;20.50;51.60;;;;;;5405544;26;20221;-48
2024/04/15 04:38:23;;;;;;;0.03;0.03;;;20.50;51.60;;;;;;5405419;26;20565;-51
2024/04/15 04:41:04;;;;;;;0.00;0.00;;;20.50;51.60;;;;;;5405695;26;20276;-47
2024/04/15 04:43:33;;;;;;;0.10;0.10;;;20.50;51.70;;;;;;5405074;26;20571;-44
2024/04/15 04:46:13;;;;;;;0.10;0.10;;;20.50;51.60;;;;;;5379173;26;20230;-47
2024/04/15 04:48:42;;;;;;;0.00;0.00;;;20.50;51.60;;;;;;5371060;26;20219;-46
2024/04/15 04:51:15;;;;;;;0.00;0.00;;;20.50;51.60;;;;;;5404342;26;20241;-45
2024/04/15 04:53:44;;;;;;;0.00;0.00;;;20.50;51.60;;;;;;5404417;26;20230;-46
2024/04/15 04:56:20;;;;;;;0.05;0.05;;;20.50;51.70;;;;;;5404473;26;20222;-46
2024/04/15 04:58:50;;;;;;;0.10;0.10;;;20.50;51.70;;;;;;5404660;26;20308;-47
2024/04/15 05:01:23;;;;;;;0.10;0.10;;;20.50;51.70;;;;;;5404916;26;20221;-46
2024/04/15 05:03:53;;;;;;;0.10;0.10;;;20.50;51.80;;;;;;5404913;26;20230;-45
2024/04/15 05:06:25;;;;;;;0.05;0.05;;;20.50;51.90;;;;;;5405124;26;20218;-46
2024/04/15 05:08:55;;;;;;;0.10;0.10;;;20.50;51.80;;;;;;5405050;26;20218;-46
2024/04/15 05:11:30;;;;;;;0.10;0.10;;;20.50;51.80;;;;;;5404570;26;20225;-47
2024/04/15 05:13:59;;;;;;;0.10;0.10;;;20.50;51.80;;;;;;5404531;26;20283;-47
2024/04/15 05:16:31;;;;;;;0.10;0.10;;;20.50;51.80;;;;;;5405033;26;20272;-46
2024/04/15 05:19:01;;;;;;;0.08;0.08;;;20.50;51.80;;;;;;5405144;26;20221;-46
2024/04/15 05:21:34;;;;;;;0.10;0.10;;;20.40;51.80;;;;;;5404470;26;20221;-45
2024/04/15 05:24:03;;;;;;;0.10;0.10;;;20.40;51.80;;;;;;5404476;26;20237;-45
2024/04/15 05:26:39;;;;;;;0.00;0.00;;;20.40;51.80;;;;;;5407425;26;20229;-46
2024/04/15 05:29:08;;;;;;;0.10;0.10;;;20.40;51.80;;;;;;5408376;26;20324;-46
2024/04/15 05:31:40;;;;;;;0.10;0.10;;;20.40;51.80;;;;;;5406334;26;20322;-47
2024/04/15 05:34:09;;;;;;;0.03;0.03;;;20.40;51.90;;;;;;5446634;26;20267;-45
2024/04/15 05:36:41;;;;;;;0.10;0.10;;;20.50;51.90;;;;;;5453892;26;20213;-48
2024/04/15 05:39:11;;;;;;;0.10;0.10;;;20.40;52.00;;;;;;5399871;26;20722;-45
2024/04/15 05:41:46;;;;;;;0.10;0.10;;;20.40;52.00;;;;;;5408043;26;20251;-50
2024/04/15 05:44:15;;;;;;;0.10;0.10;;;20.40;52.00;;;;;;5407944;26;20259;-52
2024/04/15 05:46:53;;;;;;;0.00;0.00;;;20.40;51.90;;;;;;5408287;26;20268;-49
2024/04/15 05:49:22;;;;;;;0.03;0.03;;;20.40;52.00;;;;;;5407431;26;20704;-52
2024/04/15 05:51:55;;;;;;;0.10;0.10;;;20.40;52.00;;;;;;5407227;26;20221;-50
2024/04/15 05:54:24;;;;;;;0.10;0.10;;;20.40;52.00;;;;;;5407368;26;20237;-48
2024/04/15 05:57:00;;;;;;;0.00;0.00;;;20.40;52.10;;;;;;5409359;26;20669;-48
2024/04/15 05:59:29;;;;;;;0.10;0.10;;;20.40;52.10;;;;;;5443403;26;20259;-46
2024/04/15 06:02:01;;;;;;;0.08;0.08;;;20.40;52.00;;;;;;5442647;26;20225;-46
2024/04/15 06:04:35;;;;;;;0.00;0.00;;;20.40;52.10;;;;;;5407712;26;20249;-50
2024/04/15 06:07:07;;;;;;;0.00;0.00;;;20.30;52.00;;;;;;5373095;26;20231;-49
2024/04/15 06:09:39;;;;;;;0.10;0.10;;;20.40;52.10;;;;;;5372683;26;20214;-48
2024/04/15 06:12:15;;;;;;;0.10;0.10;;;20.30;52.10;;;;;;5372185;26;20284;-50
2024/04/15 06:14:44;;;;;;;0.00;0.00;;;20.30;52.20;;;;;;5371546;26;20234;-48
2024/04/15 06:17:16;;;;;;;0.00;0.00;;;20.30;52.10;;;;;;5371274;26;20327;-48
2024/04/15 06:19:45;;;;;;;0.10;0.10;;;20.30;52.10;;;;;;5371722;26;20223;-47
2024/04/15 06:22:18;;;;;;;0.00;0.00;;;20.30;52.20;;;;;;5372014;26;20255;-46
2024/04/15 06:24:47;;;;;;;0.00;0.00;;;20.30;52.20;;;;;;5371874;26;20235;-46
2024/04/15 06:27:22;;;;;;;0.10;0.10;;;20.20;52.20;;;;;;5371351;26;20752;-48
2024/04/15 06:29:52;;;;;;;0.00;0.00;;;20.30;52.20;;;;;;5371469;26;20226;-47
2024/04/15 06:32:24;;;;;;;0.10;0.10;;;20.30;52.20;;;;;;5377451;26;20213;-47
2024/04/15 06:34:53;;;;;;;0.00;0.00;;;20.30;52.30;;;;;;5406674;26;20225;-49
2024/04/15 06:37:25;;;;;;;0.08;0.08;;;20.20;52.30;;;;;;5406265;26;20333;-46
2024/04/15 06:39:54;;;;;;;0.10;0.10;;;20.30;52.30;;;;;;5406758;26;20218;-48
2024/04/15 06:42:30;;;;;;;0.00;0.00;;;20.20;52.30;;;;;;5391652;26;20731;-46
2024/04/15 06:44:59;;;;;;;0.10;0.10;;;20.20;52.30;;;;;;5371338;26;20338;-46
2024/04/15 06:47:31;;;;;;;0.10;0.10;;;20.20;52.30;;;;;;5371246;26;20306;-48
2024/04/15 06:50:00;;;;;;;0.10;0.10;;;20.20;52.20;;;;;;5371801;26;20330;-49
2024/04/15 06:52:32;;;;;;;0.08;0.08;;;20.20;52.20;;;;;;5371805;26;20227;-47
2024/04/15 06:55:02;;;;;;;0.10;0.10;;;20.20;52.30;;;;;;5371705;26;20283;-46
2024/04/15 06:57:37;;;;;;;0.10;0.10;;;20.20;52.20;;;;;;5385954;26;20838;-47
2024/04/15 07:00:07;;;;;;;0.00;0.00;;;20.20;52.30;;;;;;5406199;26;20298;-47
2024/04/15 07:02:39;;;;;;;0.08;0.08;;;20.10;52.20;;;;;;5406235;26;20218;-51
2024/04/15 07:05:09;;;;;;;0.03;0.03;;;20.10;52.20;;;;;;5406187;26;20229;-48
2024/04/15 07:07:41;;;;;;;0.10;0.10;;;20.10;52.20;;;;;;5404683;26;20572;-49
2024/04/15 07:10:11;;;;;;;0.10;0.10;;;20.10;52.30;;;;;;5404587;26;20268;-48
2024/04/15 07:12:46;;;;;;;0.10;0.10;;;20.10;52.30;;;;;;5405906;26;20285;-48
2024/04/15 07:15:15;;;;;;;0.05;0.05;;;20.10;52.30;;;;;;5405913;26;20279;-46
2024/04/15 07:17:48;;;;;;;0.10;0.10;;;20.10;52.30;;;;;;5406287;26;20221;-47
2024/04/15 07:20:17;;;;;;;0.00;0.00;;;20.10;52.30;;;;;;5406552;26;20304;-48
2024/04/15 07:22:50;;;;;;;0.05;0.05;;;20.10;52.30;;;;;;5406589;26;20757;-46
2024/04/15 07:25:19;;;;;;;0.10;0.10;;;20.10;52.30;;;;;;5405906;26;20225;-47
2024/04/15 07:27:55;;;;;;;0.10;0.10;;;20.10;52.20;;;;;;5406363;26;20330;-47
2024/04/15 07:30:24;;;;;;;0.10;0.10;;;20.10;52.30;;;;;;5401485;26;20704;-46
2024/04/15 07:32:56;;;;;;;0.10;0.10;;;20.10;52.20;;;;;;5388774;26;20743;-47
2024/04/15 07:35:25;;;;;;;0.00;0.00;;;20.00;52.20;;;;;;5406343;26;20808;-46
2024/04/15 07:37:57;;;;;;;0.00;0.00;;;20.10;52.20;;;;;;5406179;26;20693;-48
2024/04/15 07:40:27;;;;;;;0.10;0.10;;;20.00;52.10;;;;;;5372597;26;20227;-51
2024/04/15 07:43:02;;;;;;;0.03;0.03;;;20.00;52.10;;;;;;5370911;26;20663;-47
2024/04/15 07:45:34;;;;;;;0.10;0.10;;;20.00;52.10;;;;;;5370191;26;20257;-47
2024/04/15 07:48:07;;;;;;;0.10;0.10;;;20.00;52.00;;;;;;5369607;26;20603;-48
2024/04/15 07:50:36;;;;;;;0.00;0.00;;;20.00;52.00;;;;;;5370950;26;20219;-49
2024/04/15 07:53:08;;;;;;;0.08;0.08;;;20.00;52.00;;;;;;5370900;26;20323;-49
2024/04/15 07:55:37;;;;;;;0.10;0.10;;;20.00;52.00;;;;;;5370614;26;20219;-46
2024/04/15 07:58:13;;;;;;;0.10;0.10;;;19.90;51.90;;;;;;5370309;26;20223;-47
2024/04/15 08:00:43;;;;;;;0.05;0.05;;;19.90;51.90;;;;;;5369483;26;20330;-47
2024/04/15 08:03:15;;;;;;;0.00;0.00;;;19.90;51.90;;;;;;5389306;26;20252;-46
2024/04/15 08:05:45;;;;;;;0.10;0.10;;;19.90;51.90;;;;;;5405342;26;20214;-48
2024/04/15 08:08:17;;;;;;;0.00;0.00;;;19.90;51.90;;;;;;5406046;26;20595;-46
2024/04/15 08:10:47;;;;;;;0.00;0.00;;;19.90;51.80;;;;;;5405690;26;20267;-48
2024/04/15 08:13:22;;;;;;;0.00;0.00;;;19.90;51.80;;;;;;5405756;26;20218;-47
2024/04/15 08:15:51;;;;;;;0.00;0.00;;;19.90;51.80;;;;;;5370872;26;20707;-47
2024/04/15 08:18:24;;;;;;;0.00;0.00;;;19.90;51.70;;;;;;5367364;26;20231;-48
2024/04/15 08:20:56;;;;;;;0.00;0.00;;;19.90;51.70;;;;;;5367802;26;20330;-47
2024/04/15 08:23:29;;;;;;;0.03;0.03;;;19.90;51.70;;;;;;5370258;26;20302;-52
2024/04/15 08:25:58;;;;;;;0.00;0.00;;;19.80;51.80;;;;;;5392859;26;20229;-45
2024/04/15 08:28:33;;;;;;;0.10;0.10;;;19.90;51.90;;;;;;5399567;26;20274;-46
2024/04/15 08:31:03;;;;;;;0.00;0.00;;;19.90;52.00;;;;;;5400603;26;20342;-46
2024/04/15 08:33:35;;;;;;;0.10;0.10;;;19.90;52.00;;;;;;5392859;26;20272;-47
2024/04/15 08:36:04;;;;;;;0.05;0.05;;;19.90;52.10;;;;;;5399507;26;20539;-53
2024/04/15 08:38:37;;;;;;;0.00;0.00;;;19.90;52.20;;;;;;5400374;26;20221;-46
2024/04/15 08:41:07;;;;;;;0.00;0.00;;;19.90;52.20;;;;;;5384194;26;20226;-45
2024/04/15 08:43:44;;;;;;;0.00;0.00;;;19.90;52.20;;;;;;5399851;26;20324;-49
2024/04/15 08:46:22;;;;;;;0.10;0.10;;;19.90;52.20;;;;;;5400185;26;20316;-49
2024/04/15 08:48:56;;;;;;;0.03;0.03;;;19.90;52.20;;;;;;5399546;26;20275;-50
2024/04/15 08:51:27;;;;;;;0.10;0.10;;;19.90;52.20;;;;;;5400790;26;20217;-50
2024/04/15 08:53:59;;;;;;;0.00;0.00;;;19.90;52.10;;;;;;5398803;26;20341;-47
2024/04/15 08:56:30;;;;;;;0.00;0.00;;;20.00;52.10;;;;;;5400714;26;20263;-48
2024/04/15 08:59:06;;;;;;;0.10;0.10;;;19.90;52.00;;;;;;5399150;26;20234;-50
2024/04/15 09:01:36;;;;;;;0.00;0.00;;;20.00;52.00;;;;;;5399196;26;20310;-47
2024/04/15 09:04:11;;;;;;;0.10;0.10;;;19.90;51.90;;;;;;5400194;26;20229;-47
2024/04/15 09:06:41;;;;;;;0.10;0.10;;;19.90;52.00;;;;;;5364697;26;20207;-45
2024/04/15 09:09:13;;;;;;;0.10;0.10;;;19.90;51.90;;;;;;5365318;26;20219;-47
2024/04/15 09:11:43;;;;;;;0.10;0.10;;;19.90;51.90;;;;;;5364135;26;20260;-46
2024/04/15 09:14:19;;;;;;;0.00;0.00;;;19.90;51.90;;;;;;5364671;26;20867;-46
2024/04/15 09:16:48;;;;;;;0.10;0.10;;;19.90;51.90;;;;;;5363477;26;20214;-48
2024/04/15 09:19:21;;;;;;;0.10;0.10;;;19.90;51.90;;;;;;5396425;26;20781;-51
2024/04/15 09:21:51;;;;;;;0.10;0.10;;;19.90;51.90;;;;;;5392406;26;20222;-49
2024/04/15 09:24:23;;;;;;;0.00;0.00;;;19.90;51.90;;;;;;5399435;26;20233;-48
2024/04/15 09:26:53;;;;;;;0.10;0.10;;;19.80;51.80;;;;;;5398994;26;20217;-46
2024/04/15 09:29:29;;;;;;;0.00;0.00;;;19.90;51.90;;;;;;5399287;26;20268;-50
2024/04/15 09:31:58;;;;;;;0.00;0.00;;;19.90;51.90;;;;;;5399314;26;20344;-53
2024/04/15 09:34:30;;;;;;;0.00;0.00;;;19.90;51.70;;;;;;5398779;26;20229;-46
2024/04/15 09:37:01;;;;;;;0.10;0.10;;;19.80;51.70;;;;;;5400019;26;20344;-48
2024/04/15 09:39:36;;;;;;;0.00;0.00;;;19.90;51.70;;;;;;5392598;26;20221;-48
2024/04/15 09:42:06;;;;;;;0.00;0.00;;;19.90;51.70;;;;;;5399285;26;20662;-46
2024/04/15 09:44:46;;;;;;;0.10;0.10;;;19.80;51.60;;;;;;5398097;26;20782;-47
2024/04/15 09:47:15;;;;;;;0.00;0.00;;;19.80;51.60;;;;;;5399016;26;20225;-47
2024/04/15 09:49:50;;;;;;;0.00;0.00;;;19.80;51.60;;;;;;5398871;26;20759;-48
2024/04/15 09:52:23;;;;;;;0.00;0.00;;;19.80;51.60;;;;;;5399444;26;20717;-47
2024/04/15 09:55:01;;;;;;;0.03;0.03;;;19.80;51.50;;;;;;5398888;26;20562;-47
2024/04/15 09:57:33;;;;;;;0.00;0.00;;;19.80;51.60;;;;;;5400051;26;20716;-48
2024/04/15 10:00:12;;;;;;;0.00;0.00;;;19.80;51.50;;;;;;5398561;26;20395;-48
2024/04/15 10:02:53;;;;;;;0.05;0.05;;;19.80;51.50;;;;;;5398837;26;20264;-50
2024/04/15 10:05:27;;;;;;;0.00;0.00;;;19.70;51.40;;;;;;5398407;26;20264;-47
2024/04/15 10:07:58;;;;;;;0.10;0.10;;;19.70;51.40;;;;;;5398319;26;20701;-46
2024/04/15 10:10:31;;;;;;;0.00;0.00;;;19.70;51.40;;;;;;5399506;26;20690;-46
2024/04/15 10:13:03;;;;;;;0.00;0.00;;;19.70;51.40;;;;;;5401245;26;20305;-48
2024/04/15 10:15:39;;;;;;;0.00;0.00;;;19.70;51.40;;;;;;5401868;26;20218;-47
2024/04/15 10:18:11;;;;;;;0.10;0.10;;;19.60;51.30;;;;;;5402539;26;20267;-47
2024/04/15 10:20:45;;;;;;;0.10;0.10;;;19.70;51.40;;;;;;5401976;26;20276;-46
2024/04/15 10:23:18;;;;;;;0.00;0.00;;;19.70;51.30;;;;;;5403088;26;20271;-47
2024/04/15 10:25:53;;;;;;;0.10;0.10;;;19.60;51.30;;;;;;5400989;26;20318;-48
2024/04/15 10:28:22;;;;;;;0.10;0.10;;;19.60;51.20;;;;;;5402508;26;20228;-48
2024/04/15 10:30:57;;;;;;;0.00;0.00;;;19.60;51.20;;;;;;5401837;26;20229;-52
2024/04/15 10:33:26;;;;;;;0.00;0.00;;;19.60;51.20;;;;;;5401810;26;20332;-51
2024/04/15 10:35:59;;;;;;;0.00;0.00;;;19.60;51.20;;;;;;5401951;26;20276;-48
2024/04/15 10:38:29;;;;;;;0.10;0.10;;;19.60;51.20;;;;;;5402531;26;20336;-50
2024/04/15 10:41:01;;;;;;;0.00;0.00;;;19.60;51.20;;;;;;5399590;26;20237;-52
2024/04/15 10:43:31;;;;;;;0.00;0.00;;;19.60;51.10;;;;;;5402290;26;20709;-48
2024/04/15 10:46:07;;;;;;;0.00;0.00;;;19.50;51.10;;;;;;5402473;26;20263;-51
2024/04/15 10:48:38;;;;;;;0.00;0.00;;;19.50;51.10;;;;;;5401263;26;20692;-47
2024/04/15 10:51:10;;;;;;;0.00;0.00;;;19.50;51.00;;;;;;5400658;26;20234;-49
2024/04/15 10:53:41;;;;;;;0.00;0.00;;;19.50;51.00;;;;;;5401655;26;20233;-47
2024/04/15 10:56:14;;;;;;;0.03;0.03;;;19.50;51.00;;;;;;5402744;26;20747;-47
2024/04/15 10:58:44;;;;;;;0.10;0.10;;;19.40;51.00;;;;;;5401237;26;20261;-49
2024/04/15 11:01:22;;;;;;;0.00;0.00;;;19.40;51.00;;;;;;5402513;26;20213;-46
2024/04/15 11:03:52;;;;;;;0.00;0.00;;;19.40;50.90;;;;;;5401715;26;20233;-45
2024/04/15 11:06:24;;;;;;;0.10;0.10;;;19.40;50.90;;;;;;5401153;26;20252;-47
2024/04/15 11:08:57;;;;;;;0.10;0.10;;;19.40;50.90;;;;;;5402502;26;20217;-46
2024/04/15 11:11:31;;;;;;;0.10;0.10;;;19.40;50.90;;;;;;5400952;26;20229;-49
2024/04/15 11:14:01;;;;;;;0.05;0.05;;;19.40;50.90;;;;;;5401138;26;20297;-48
2024/04/15 11:16:37;;;;;;;0.00;0.00;;;19.40;50.80;;;;;;5399915;26;20334;-48
2024/04/15 11:19:09;;;;;;;0.00;0.00;;;19.40;50.90;;;;;;5401794;26;20225;-47
2024/04/15 11:21:41;;;;;;;0.10;0.10;;;19.30;50.80;;;;;;5399781;26;20264;-49
2024/04/15 11:24:10;;;;;;;0.00;0.00;;;19.40;50.80;;;;;;5401538;26;20371;-50
2024/04/15 11:26:44;;;;;;;0.00;0.00;;;19.30;50.80;;;;;;5401475;26;20226;-46
2024/04/15 11:29:14;;;;;;;0.10;0.10;;;19.30;50.70;;;;;;5394781;26;20225;-46
2024/04/15 11:31:50;;;;;;;0.00;0.00;;;19.30;50.70;;;;;;5402314;26;20276;-45
2024/04/15 11:34:19;;;;;;;0.00;0.00;;;19.30;50.70;;;;;;5405094;26;20284;-46
2024/04/15 11:36:51;;;;;;;0.00;0.00;;;19.30;50.70;;;;;;5398708;26;20245;-45
2024/04/15 11:39:20;;;;;;;0.00;0.00;;;19.30;50.70;;;;;;5406516;26;20222;-48
2024/04/15 11:41:53;;;;;;;0.00;0.00;;;19.20;50.60;;;;;;5406454;26;20222;-46
2024/04/15 11:44:22;;;;;;;0.10;0.10;;;19.20;50.60;;;;;;5406426;26;20345;-46
2024/04/15 11:46:58;;;;;;;0.00;0.00;;;19.20;50.60;;;;;;5406473;26;20210;-47
2024/04/15 11:49:27;;;;;;;0.00;0.00;;;19.20;50.60;;;;;;5406262;26;20814;-46
2024/04/15 11:52:02;;;;;;;0.10;0.10;;;19.20;50.60;;;;;;5406083;26;20321;-47
2024/04/15 11:54:32;;;;;;;0.00;0.00;;;19.20;50.60;;;;;;5406112;26;20225;-46
2024/04/15 11:57:04;;;;;;;0.10;0.10;;;19.20;50.60;;;;;;5406344;26;20698;-49
2024/04/15 11:59:33;;;;;;;0.00;0.00;;;19.20;50.60;;;;;;5405310;26;20217;-45
2024/04/15 12:02:13;;;;;;;0.03;0.03;;;19.10;50.60;;;;;;5405762;26;20617;-47
2024/04/15 12:04:48;;;;;;;0.10;0.10;;;19.10;50.60;;;;;;5406043;26;20233;-48
2024/04/15 12:07:22;;;;;;;0.10;0.10;;;19.10;50.50;;;;;;5405950;26;20236;-49
2024/04/15 12:09:54;;;;;;;0.10;0.10;;;19.10;50.50;;;;;;5405864;26;20257;-47
2024/04/15 12:12:26;;;;;;;0.00;0.00;;;19.10;50.50;;;;;;5405735;26;20268;-48
2024/04/15 12:14:56;;;;;;;0.10;0.10;;;19.10;50.50;;;;;;5405513;26;20721;-45
2024/04/15 12:17:31;;;;;;;0.15;0.15;;;19.10;50.50;;;;;;5405532;26;20627;-47
2024/04/15 12:20:02;;;;;;;0.10;0.10;;;19.10;50.50;;;;;;5405346;26;20251;-49
2024/04/15 12:22:35;;;;;;;0.00;0.00;;;19.10;50.50;;;;;;5405690;26;20226;-46
2024/04/15 12:25:04;;;;;;;0.10;0.10;;;19.10;50.50;;;;;;5405329;26;20233;-48
2024/04/15 12:27:36;;;;;;;0.10;0.10;;;19.10;50.50;;;;;;5405953;26;20217;-48
2024/04/15 12:30:08;;;;;;;0.08;0.08;;;19.10;50.50;;;;;;5405860;26;20221;-48
2024/04/15 12:32:45;;;;;;;0.00;0.00;;;19.00;50.50;;;;;;5406162;26;20221;-46
2024/04/15 12:35:14;;;;;;;0.10;0.10;;;19.00;50.50;;;;;;5404768;26;20733;-49
2024/04/15 12:37:48;;;;;;;0.10;0.10;;;19.00;50.50;;;;;;5405618;26;20325;-48
2024/04/15 12:40:17;;;;;;;0.00;0.00;;;19.00;50.50;;;;;;5405403;26;20268;-50
2024/04/15 12:42:49;;;;;;;0.10;0.10;;;19.00;50.50;;;;;;5388865;26;20725;-47
2024/04/15 12:45:18;;;;;;;0.10;0.10;;;19.00;50.50;;;;;;5370016;26;20718;-45
2024/04/15 12:47:54;;;;;;;0.10;0.10;;;19.00;50.50;;;;;;5369739;26;20226;-48
2024/04/15 12:50:23;;;;;;;0.10;0.10;;;19.00;50.50;;;;;;5369596;26;20218;-48
2024/04/15 12:52:56;;;;;;;0.08;0.08;;;19.00;50.50;;;;;;5391408;26;20301;-46
2024/04/15 12:55:25;;;;;;;0.10;0.10;;;19.00;50.50;;;;;;5405207;26;20217;-46
2024/04/15 12:57:57;;;;;;;0.10;0.10;;;19.00;50.50;;;;;;5404774;26;20261;-45
2024/04/15 13:00:26;;;;;;;0.10;0.10;;;19.00;50.50;;;;;;5405362;26;20600;-45
2024/04/15 13:03:02;;;;;;;0.10;0.10;;;19.00;50.50;;;;;;5404840;26;20222;-47
2024/04/15 13:05:31;;;;;;;0.00;0.00;;;19.00;50.50;;;;;;5404607;26;20229;-46
2024/04/15 13:08:03;;;;;;;0.10;0.10;;;18.90;50.40;;;;;;5405056;26;20280;-49
2024/04/15 13:10:33;;;;;;;0.10;0.10;;;18.90;50.40;;;;;;5405078;26;20264;-50